sensor_id;sensor_type;location;lat;lon;timestamp;temperature;humidity
43151;DHT22;28755;51.478;5.702;2023-08-21T00:01:19;21.20;99.90
43151;DHT22;28755;51.478;5.702;2023-08-21T00:03:44;21.20;99.90
43151;DHT22;28755;51.478;5.702;2023-08-21T00:06:10;21.30;99.90
43151;DHT22;28755;51.478;5.702;2023-08-21T00:08:36;21.10;99.90
43151;DHT22;28755;51.478;5.702;2023-08-21T00:11:02;21.10;99.90
43151;DHT22;28755;51.478;5.702;2023-08-21T00:13:27;21.00;99.90
43151;DHT22;28755;51.478;5.702;2023-08-21T00:15:53;20.90;99.90
43151;DHT22;28755;51.478;5.702;2023-08-21T00:18:21;20.90;99.90
43151;DHT22;28755;51.478;5.702;2023-08-21T00:20:46;20.90;99.90
43151;DHT22;28755;51.478;5.702;2023-08-21T00:23:12;20.90;99.90
43151;DHT22;28755;51.478;5.702;2023-08-21T00:25:37;20.90;99.90
43151;DHT22;28755;51.478;5.702;2023-08-21T00:28:03;21.00;99.90
43151;DHT22;28755;51.478;5.702;2023-08-21T00:30:29;21.00;99.90
43151;DHT22;28755;51.478;5.702;2023-08-21T00:32:54;20.80;99.90
43151;DHT22;28755;51.478;5.702;2023-08-21T00:35:20;20.80;99.90
43151;DHT22;28755;51.478;5.702;2023-08-21T00:37:45;20.80;99.90
43151;DHT22;28755;51.478;5.702;2023-08-21T00:40:12;20.70;99.90
43151;DHT22;28755;51.478;5.702;2023-08-21T00:42:37;20.70;99.90
43151;DHT22;28755;51.478;5.702;2023-08-21T00:45:03;20.70;99.90
43151;DHT22;28755;51.478;5.702;2023-08-21T00:47:29;20.70;99.90
43151;DHT22;28755;51.478;5.702;2023-08-21T00:49:55;20.60;99.90
43151;DHT22;28755;51.478;5.702;2023-08-21T00:52:21;20.70;99.90
43151;DHT22;28755;51.478;5.702;2023-08-21T00:54:47;20.60;99.90
43151;DHT22;28755;51.478;5.702;2023-08-21T00:57:14;20.50;99.90
43151;DHT22;28755;51.478;5.702;2023-08-21T00:59:40;20.60;99.90
43151;DHT22;28755;51.478;5.702;2023-08-21T01:02:06;20.50;99.90
43151;DHT22;28755;51.478;5.702;2023-08-21T01:04:31;20.70;99.90
43151;DHT22;28755;51.478;5.702;2023-08-21T01:06:57;20.50;99.90
43151;DHT22;28755;51.478;5.702;2023-08-21T01:09:25;20.40;99.90
43151;DHT22;28755;51.478;5.702;2023-08-21T01:14:42;20.30;99.90
43151;DHT22;28755;51.478;5.702;2023-08-21T01:17:09;20.40;99.90
43151;DHT22;28755;51.478;5.702;2023-08-21T01:19:41;20.40;99.90
43151;DHT22;28755;51.478;5.702;2023-08-21T01:22:08;20.40;99.90
43151;DHT22;28755;51.478;5.702;2023-08-21T01:24:34;20.40;99.90
43151;DHT22;28755;51.478;5.702;2023-08-21T01:27:00;20.30;99.90
43151;DHT22;28755;51.478;5.702;2023-08-21T01:29:26;20.30;99.90
43151;DHT22;28755;51.478;5.702;2023-08-21T01:32:20;20.40;99.90
43151;DHT22;28755;51.478;5.702;2023-08-21T01:34:47;20.40;99.90
43151;DHT22;28755;51.478;5.702;2023-08-21T01:37:15;20.50;99.90
43151;DHT22;28755;51.478;5.702;2023-08-21T01:39:42;20.40;99.90
43151;DHT22;28755;51.478;5.702;2023-08-21T01:42:07;20.30;99.90
43151;DHT22;28755;51.478;5.702;2023-08-21T01:44:33;20.40;99.90
43151;DHT22;28755;51.478;5.702;2023-08-21T01:46:59;20.40;99.90
43151;DHT22;28755;51.478;5.702;2023-08-21T01:49:24;20.30;99.90
43151;DHT22;28755;51.478;5.702;2023-08-21T01:51:50;20.20;99.90
43151;DHT22;28755;51.478;5.702;2023-08-21T01:54:15;20.30;99.90
43151;DHT22;28755;51.478;5.702;2023-08-21T01:56:41;20.20;99.90
43151;DHT22;28755;51.478;5.702;2023-08-21T01:59:06;20.20;99.90
43151;DHT22;28755;51.478;5.702;2023-08-21T02:01:32;20.10;99.90
43151;DHT22;28755;51.478;5.702;2023-08-21T02:03:58;20.10;99.90
43151;DHT22;28755;51.478;5.702;2023-08-21T02:06:24;20.00;99.90
43151;DHT22;28755;51.478;5.702;2023-08-21T02:08:49;20.00;99.90
43151;DHT22;28755;51.478;5.702;2023-08-21T02:11:15;19.90;99.90
43151;DHT22;28755;51.478;5.702;2023-08-21T02:13:40;19.90;99.90
43151;DHT22;28755;51.478;5.702;2023-08-21T02:16:06;19.90;99.90
43151;DHT22;28755;51.478;5.702;2023-08-21T02:18:32;19.90;99.90
43151;DHT22;28755;51.478;5.702;2023-08-21T02:20:57;19.80;99.90
43151;DHT22;28755;51.478;5.702;2023-08-21T02:23:23;19.80;99.90
43151;DHT22;28755;51.478;5.702;2023-08-21T02:25:49;19.70;99.90
43151;DHT22;28755;51.478;5.702;2023-08-21T02:28:15;19.70;99.90
43151;DHT22;28755;51.478;5.702;2023-08-21T02:30:41;19.60;99.90
43151;DHT22;28755;51.478;5.702;2023-08-21T02:33:07;19.60;99.90
43151;DHT22;28755;51.478;5.702;2023-08-21T02:35:32;19.60;99.90
43151;DHT22;28755;51.478;5.702;2023-08-21T02:37:58;19.60;99.90
43151;DHT22;28755;51.478;5.702;2023-08-21T02:40:23;19.60;99.90
43151;DHT22;28755;51.478;5.702;2023-08-21T02:42:49;19.50;99.90
43151;DHT22;28755;51.478;5.702;2023-08-21T02:45:14;19.50;99.90
43151;DHT22;28755;51.478;5.702;2023-08-21T02:47:40;19.50;99.90
43151;DHT22;28755;51.478;5.702;2023-08-21T02:50:07;19.50;99.90
43151;DHT22;28755;51.478;5.702;2023-08-21T02:52:34;19.40;99.90
43151;DHT22;28755;51.478;5.702;2023-08-21T02:55:00;19.40;99.90
43151;DHT22;28755;51.478;5.702;2023-08-21T02:57:27;19.40;99.90
43151;DHT22;28755;51.478;5.702;2023-08-21T02:59:53;19.40;99.90
43151;DHT22;28755;51.478;5.702;2023-08-21T03:02:19;19.40;99.90
43151;DHT22;28755;51.478;5.702;2023-08-21T03:04:45;19.40;99.90
43151;DHT22;28755;51.478;5.702;2023-08-21T03:07:10;19.30;99.90
43151;DHT22;28755;51.478;5.702;2023-08-21T03:09:37;19.40;99.90
43151;DHT22;28755;51.478;5.702;2023-08-21T03:12:03;19.40;99.90
43151;DHT22;28755;51.478;5.702;2023-08-21T03:14:29;19.50;99.90
43151;DHT22;28755;51.478;5.702;2023-08-21T03:16:54;19.50;99.90
43151;DHT22;28755;51.478;5.702;2023-08-21T03:19:20;19.40;99.90
43151;DHT22;28755;51.478;5.702;2023-08-21T03:21:45;19.40;99.90
43151;DHT22;28755;51.478;5.702;2023-08-21T03:24:11;19.40;99.90
43151;DHT22;28755;51.478;5.702;2023-08-21T03:26:36;19.30;99.90
43151;DHT22;28755;51.478;5.702;2023-08-21T03:29:02;19.30;99.90
43151;DHT22;28755;51.478;5.702;2023-08-21T03:31:29;19.40;99.90
43151;DHT22;28755;51.478;5.702;2023-08-21T03:33:55;19.40;99.90
43151;DHT22;28755;51.478;5.702;2023-08-21T03:36:20;19.30;99.90
43151;DHT22;28755;51.478;5.702;2023-08-21T03:38:46;19.30;99.90
43151;DHT22;28755;51.478;5.702;2023-08-21T03:41:11;19.30;99.90
43151;DHT22;28755;51.478;5.702;2023-08-21T03:43:37;19.20;99.90
43151;DHT22;28755;51.478;5.702;2023-08-21T03:46:03;19.10;99.90
43151;DHT22;28755;51.478;5.702;2023-08-21T03:48:28;19.20;99.90
43151;DHT22;28755;51.478;5.702;2023-08-21T03:50:54;19.10;99.90
43151;DHT22;28755;51.478;5.702;2023-08-21T03:53:19;19.20;99.90
43151;DHT22;28755;51.478;5.702;2023-08-21T03:55:45;19.10;99.90
43151;DHT22;28755;51.478;5.702;2023-08-21T03:58:11;19.10;99.90
43151;DHT22;28755;51.478;5.702;2023-08-21T04:00:37;19.10;99.90
43151;DHT22;28755;51.478;5.702;2023-08-21T04:03:03;19.00;99.90
43151;DHT22;28755;51.478;5.702;2023-08-21T04:05:28;19.10;99.90
43151;DHT22;28755;51.478;5.702;2023-08-21T04:07:54;19.00;99.90
43151;DHT22;28755;51.478;5.702;2023-08-21T04:10:19;18.90;99.90
43151;DHT22;28755;51.478;5.702;2023-08-21T04:12:45;18.90;99.90
43151;DHT22;28755;51.478;5.702;2023-08-21T04:15:10;18.90;99.90
43151;DHT22;28755;51.478;5.702;2023-08-21T04:17:36;18.80;99.90
43151;DHT22;28755;51.478;5.702;2023-08-21T04:20:02;18.80;99.90
43151;DHT22;28755;51.478;5.702;2023-08-21T04:22:28;18.80;99.90
43151;DHT22;28755;51.478;5.702;2023-08-21T04:24:53;18.80;99.90
43151;DHT22;28755;51.478;5.702;2023-08-21T04:27:19;18.90;99.90
43151;DHT22;28755;51.478;5.702;2023-08-21T04:29:45;18.80;99.90
43151;DHT22;28755;51.478;5.702;2023-08-21T04:32:10;18.80;99.90
43151;DHT22;28755;51.478;5.702;2023-08-21T04:34:37;18.80;99.90
43151;DHT22;28755;51.478;5.702;2023-08-21T04:37:03;18.70;99.90
43151;DHT22;28755;51.478;5.702;2023-08-21T04:39:30;18.70;99.90
43151;DHT22;28755;51.478;5.702;2023-08-21T04:41:55;18.60;99.90
43151;DHT22;28755;51.478;5.702;2023-08-21T04:44:21;18.50;99.90
43151;DHT22;28755;51.478;5.702;2023-08-21T04:46:48;18.50;99.90
43151;DHT22;28755;51.478;5.702;2023-08-21T04:49:14;18.50;99.90
43151;DHT22;28755;51.478;5.702;2023-08-21T04:51:39;18.50;99.90
43151;DHT22;28755;51.478;5.702;2023-08-21T04:54:05;18.50;99.90
43151;DHT22;28755;51.478;5.702;2023-08-21T04:56:30;18.50;99.90
43151;DHT22;28755;51.478;5.702;2023-08-21T04:58:56;18.40;99.90
43151;DHT22;28755;51.478;5.702;2023-08-21T05:01:21;18.60;99.90
43151;DHT22;28755;51.478;5.702;2023-08-21T05:03:47;18.70;99.90
43151;DHT22;28755;51.478;5.702;2023-08-21T05:06:16;18.70;99.90
43151;DHT22;28755;51.478;5.702;2023-08-21T05:08:42;18.80;99.90
43151;DHT22;28755;51.478;5.702;2023-08-21T05:11:23;18.80;99.90
43151;DHT22;28755;51.478;5.702;2023-08-21T05:13:50;18.80;99.90
43151;DHT22;28755;51.478;5.702;2023-08-21T05:20:03;18.70;99.90
43151;DHT22;28755;51.478;5.702;2023-08-21T05:22:29;18.80;99.90
43151;DHT22;28755;51.478;5.702;2023-08-21T05:24:55;18.90;99.90
43151;DHT22;28755;51.478;5.702;2023-08-21T05:27:20;19.00;99.90
43151;DHT22;28755;51.478;5.702;2023-08-21T05:29:46;19.10;99.90
43151;DHT22;28755;51.478;5.702;2023-08-21T05:32:12;19.10;99.90
43151;DHT22;28755;51.478;5.702;2023-08-21T05:34:37;19.20;99.90
43151;DHT22;28755;51.478;5.702;2023-08-21T05:37:03;19.20;99.90
43151;DHT22;28755;51.478;5.702;2023-08-21T05:39:29;19.30;99.90
43151;DHT22;28755;51.478;5.702;2023-08-21T05:41:54;19.30;99.90
43151;DHT22;28755;51.478;5.702;2023-08-21T05:44:20;19.40;99.90
43151;DHT22;28755;51.478;5.702;2023-08-21T05:46:45;19.50;99.90
43151;DHT22;28755;51.478;5.702;2023-08-21T05:49:11;19.50;99.90
43151;DHT22;28755;51.478;5.702;2023-08-21T05:51:37;19.50;99.90
43151;DHT22;28755;51.478;5.702;2023-08-21T05:54:02;19.60;99.90
43151;DHT22;28755;51.478;5.702;2023-08-21T05:56:28;19.60;99.90
43151;DHT22;28755;51.478;5.702;2023-08-21T05:58:53;19.60;99.90
43151;DHT22;28755;51.478;5.702;2023-08-21T06:01:19;19.70;99.90
43151;DHT22;28755;51.478;5.702;2023-08-21T06:03:44;19.70;99.90
43151;DHT22;28755;51.478;5.702;2023-08-21T06:06:10;19.70;99.90
43151;DHT22;28755;51.478;5.702;2023-08-21T06:08:35;19.80;99.90
43151;DHT22;28755;51.478;5.702;2023-08-21T06:11:01;20.00;99.90
43151;DHT22;28755;51.478;5.702;2023-08-21T06:13:27;20.10;99.90
43151;DHT22;28755;51.478;5.702;2023-08-21T06:15:53;20.30;99.90
43151;DHT22;28755;51.478;5.702;2023-08-21T06:18:19;20.40;99.90
43151;DHT22;28755;51.478;5.702;2023-08-21T06:20:44;20.60;99.90
43151;DHT22;28755;51.478;5.702;2023-08-21T06:23:11;20.60;99.90
43151;DHT22;28755;51.478;5.702;2023-08-21T06:25:37;20.80;99.90
43151;DHT22;28755;51.478;5.702;2023-08-21T06:28:03;21.10;99.90
43151;DHT22;28755;51.478;5.702;2023-08-21T06:30:29;21.40;99.90
43151;DHT22;28755;51.478;5.702;2023-08-21T06:32:55;21.60;99.90
43151;DHT22;28755;51.478;5.702;2023-08-21T06:35:21;21.60;99.90
43151;DHT22;28755;51.478;5.702;2023-08-21T06:37:46;21.70;99.90
43151;DHT22;28755;51.478;5.702;2023-08-21T06:40:12;21.70;99.90
43151;DHT22;28755;51.478;5.702;2023-08-21T06:42:37;21.60;99.90
43151;DHT22;28755;51.478;5.702;2023-08-21T06:45:06;21.60;99.90
43151;DHT22;28755;51.478;5.702;2023-08-21T06:47:33;21.60;99.90
43151;DHT22;28755;51.478;5.702;2023-08-21T06:49:58;21.70;99.90
43151;DHT22;28755;51.478;5.702;2023-08-21T06:52:26;21.80;99.90
43151;DHT22;28755;51.478;5.702;2023-08-21T06:54:51;21.80;99.90
43151;DHT22;28755;51.478;5.702;2023-08-21T06:57:17;21.90;99.90
43151;DHT22;28755;51.478;5.702;2023-08-21T06:59:42;22.00;99.90
43151;DHT22;28755;51.478;5.702;2023-08-21T07:02:08;22.10;99.90
43151;DHT22;28755;51.478;5.702;2023-08-21T07:04:33;22.30;99.90
43151;DHT22;28755;51.478;5.702;2023-08-21T07:06:59;22.30;99.90
43151;DHT22;28755;51.478;5.702;2023-08-21T07:09:25;22.50;99.90
43151;DHT22;28755;51.478;5.702;2023-08-21T07:11:50;22.50;99.90
43151;DHT22;28755;51.478;5.702;2023-08-21T07:14:16;22.50;99.90
43151;DHT22;28755;51.478;5.702;2023-08-21T07:16:42;22.50;99.90
43151;DHT22;28755;51.478;5.702;2023-08-21T07:19:08;22.50;99.90
43151;DHT22;28755;51.478;5.702;2023-08-21T07:21:33;22.70;99.90
43151;DHT22;28755;51.478;5.702;2023-08-21T07:24:02;22.90;99.90
43151;DHT22;28755;51.478;5.702;2023-08-21T07:26:28;23.20;99.90
43151;DHT22;28755;51.478;5.702;2023-08-21T07:28:54;23.20;99.90
43151;DHT22;28755;51.478;5.702;2023-08-21T07:31:20;23.40;99.90
43151;DHT22;28755;51.478;5.702;2023-08-21T07:33:45;23.30;99.90
43151;DHT22;28755;51.478;5.702;2023-08-21T07:36:11;23.40;99.90
43151;DHT22;28755;51.478;5.702;2023-08-21T07:38:45;23.40;99.90
43151;DHT22;28755;51.478;5.702;2023-08-21T07:41:12;23.50;99.90
43151;DHT22;28755;51.478;5.702;2023-08-21T07:43:41;23.70;99.90
43151;DHT22;28755;51.478;5.702;2023-08-21T07:46:08;23.90;99.90
43151;DHT22;28755;51.478;5.702;2023-08-21T07:48:44;24.20;99.90
43151;DHT22;28755;51.478;5.702;2023-08-21T07:51:10;24.40;99.90
43151;DHT22;28755;51.478;5.702;2023-08-21T07:53:36;24.50;99.90
43151;DHT22;28755;51.478;5.702;2023-08-21T07:56:03;24.60;99.90
43151;DHT22;28755;51.478;5.702;2023-08-21T07:58:31;24.60;99.90
43151;DHT22;28755;51.478;5.702;2023-08-21T08:00:57;24.70;99.90
43151;DHT22;28755;51.478;5.702;2023-08-21T08:03:23;24.90;99.90
43151;DHT22;28755;51.478;5.702;2023-08-21T08:05:48;25.20;99.90
43151;DHT22;28755;51.478;5.702;2023-08-21T08:08:16;25.40;99.90
43151;DHT22;28755;51.478;5.702;2023-08-21T08:10:42;25.60;99.90
43151;DHT22;28755;51.478;5.702;2023-08-21T08:13:07;26.00;99.90
43151;DHT22;28755;51.478;5.702;2023-08-21T08:15:33;26.10;99.90
43151;DHT22;28755;51.478;5.702;2023-08-21T08:18:00;26.50;99.90
43151;DHT22;28755;51.478;5.702;2023-08-21T08:20:26;27.00;99.90
43151;DHT22;28755;51.478;5.702;2023-08-21T08:22:51;27.30;99.90
43151;DHT22;28755;51.478;5.702;2023-08-21T08:25:17;26.80;99.90
43151;DHT22;28755;51.478;5.702;2023-08-21T08:27:43;27.40;99.90
43151;DHT22;28755;51.478;5.702;2023-08-21T08:30:09;27.90;99.90
43151;DHT22;28755;51.478;5.702;2023-08-21T08:32:36;28.50;99.90
43151;DHT22;28755;51.478;5.702;2023-08-21T08:35:01;29.10;99.90
43151;DHT22;28755;51.478;5.702;2023-08-21T08:37:27;29.80;99.90
43151;DHT22;28755;51.478;5.702;2023-08-21T08:39:52;30.30;99.90
43151;DHT22;28755;51.478;5.702;2023-08-21T08:42:18;30.80;99.90
43151;DHT22;28755;51.478;5.702;2023-08-21T08:44:44;31.30;99.90
43151;DHT22;28755;51.478;5.702;2023-08-21T08:47:13;31.50;99.90
43151;DHT22;28755;51.478;5.702;2023-08-21T08:49:39;31.60;99.90
43151;DHT22;28755;51.478;5.702;2023-08-21T08:52:05;31.10;99.90
43151;DHT22;28755;51.478;5.702;2023-08-21T08:54:31;31.40;99.90
43151;DHT22;28755;51.478;5.702;2023-08-21T08:56:57;31.90;99.90
43151;DHT22;28755;51.478;5.702;2023-08-21T08:59:23;32.70;99.90
43151;DHT22;28755;51.478;5.702;2023-08-21T09:01:48;33.60;99.90
43151;DHT22;28755;51.478;5.702;2023-08-21T09:04:14;33.90;99.90
43151;DHT22;28755;51.478;5.702;2023-08-21T09:06:40;34.00;99.90
43151;DHT22;28755;51.478;5.702;2023-08-21T09:09:07;34.00;99.90
43151;DHT22;28755;51.478;5.702;2023-08-21T09:11:34;33.50;99.90
43151;DHT22;28755;51.478;5.702;2023-08-21T09:14:00;33.70;99.90
43151;DHT22;28755;51.478;5.702;2023-08-21T09:16:25;34.30;99.90
43151;DHT22;28755;51.478;5.702;2023-08-21T09:18:55;34.90;99.90
43151;DHT22;28755;51.478;5.702;2023-08-21T09:21:25;35.50;99.20
43151;DHT22;28755;51.478;5.702;2023-08-21T09:23:57;35.70;99.00
43151;DHT22;28755;51.478;5.702;2023-08-21T09:26:24;35.80;98.80
43151;DHT22;28755;51.478;5.702;2023-08-21T09:28:52;36.20;98.80
43151;DHT22;28755;51.478;5.702;2023-08-21T09:31:29;37.00;97.90
43151;DHT22;28755;51.478;5.702;2023-08-21T09:33:56;37.00;97.20
43151;DHT22;28755;51.478;5.702;2023-08-21T09:36:22;37.60;96.50
43151;DHT22;28755;51.478;5.702;2023-08-21T09:38:48;37.80;95.30
43151;DHT22;28755;51.478;5.702;2023-08-21T09:41:19;38.30;95.50
43151;DHT22;28755;51.478;5.702;2023-08-21T09:43:45;38.40;94.80
43151;DHT22;28755;51.478;5.702;2023-08-21T09:46:17;37.80;94.60
43151;DHT22;28755;51.478;5.702;2023-08-21T09:48:46;38.20;94.60
43151;DHT22;28755;51.478;5.702;2023-08-21T09:51:12;37.20;93.60
43151;DHT22;28755;51.478;5.702;2023-08-21T09:53:38;36.90;93.80
43151;DHT22;28755;51.478;5.702;2023-08-21T09:56:05;37.40;93.50
43151;DHT22;28755;51.478;5.702;2023-08-21T09:58:31;37.30;93.70
43151;DHT22;28755;51.478;5.702;2023-08-21T10:00:58;37.20;93.80
43151;DHT22;28755;51.478;5.702;2023-08-21T10:03:25;37.20;93.10
43151;DHT22;28755;51.478;5.702;2023-08-21T10:05:51;38.00;93.40
43151;DHT22;28755;51.478;5.702;2023-08-21T10:08:24;38.10;92.80
43151;DHT22;28755;51.478;5.702;2023-08-21T10:10:50;37.60;93.10
43151;DHT22;28755;51.478;5.702;2023-08-21T10:13:16;37.40;92.60
43151;DHT22;28755;51.478;5.702;2023-08-21T10:15:42;37.60;92.20
43151;DHT22;28755;51.478;5.702;2023-08-21T10:18:29;38.30;92.50
43151;DHT22;28755;51.478;5.702;2023-08-21T10:20:54;39.00;92.20
43151;DHT22;28755;51.478;5.702;2023-08-21T10:25:55;34.60;92.80
43151;DHT22;28755;51.478;5.702;2023-08-21T10:28:21;34.50;93.90
43151;DHT22;28755;51.478;5.702;2023-08-21T10:30:47;36.10;92.80
43151;DHT22;28755;51.478;5.702;2023-08-21T10:33:12;37.30;92.50
43151;DHT22;28755;51.478;5.702;2023-08-21T10:35:38;38.10;92.10
43151;DHT22;28755;51.478;5.702;2023-08-21T10:38:16;37.90;91.50
43151;DHT22;28755;51.478;5.702;2023-08-21T10:41:08;35.50;92.30
43151;DHT22;28755;51.478;5.702;2023-08-21T10:43:41;34.20;92.70
43151;DHT22;28755;51.478;5.702;2023-08-21T10:46:09;35.90;93.20
43151;DHT22;28755;51.478;5.702;2023-08-21T10:48:35;37.30;92.90
43151;DHT22;28755;51.478;5.702;2023-08-21T10:51:03;37.90;92.30
43151;DHT22;28755;51.478;5.702;2023-08-21T10:53:29;37.60;91.40
43151;DHT22;28755;51.478;5.702;2023-08-21T10:55:56;38.20;91.40
43151;DHT22;28755;51.478;5.702;2023-08-21T10:58:21;38.00;90.90
43151;DHT22;28755;51.478;5.702;2023-08-21T11:00:47;36.80;90.40
43151;DHT22;28755;51.478;5.702;2023-08-21T11:03:20;36.60;90.20
43151;DHT22;28755;51.478;5.702;2023-08-21T11:06:00;36.80;90.10
43151;DHT22;28755;51.478;5.702;2023-08-21T11:08:26;37.40;90.90
43151;DHT22;28755;51.478;5.702;2023-08-21T11:10:51;38.70;90.50
43151;DHT22;28755;51.478;5.702;2023-08-21T11:13:18;38.90;89.80
43151;DHT22;28755;51.478;5.702;2023-08-21T11:15:45;38.60;90.00
43151;DHT22;28755;51.478;5.702;2023-08-21T11:18:10;38.60;90.00
43151;DHT22;28755;51.478;5.702;2023-08-21T11:20:36;38.70;90.10
43151;DHT22;28755;51.478;5.702;2023-08-21T11:23:04;39.40;90.00
43151;DHT22;28755;51.478;5.702;2023-08-21T11:25:34;39.30;89.80
43151;DHT22;28755;51.478;5.702;2023-08-21T11:28:00;38.00;88.90
43151;DHT22;28755;51.478;5.702;2023-08-21T11:30:28;37.80;90.10
43151;DHT22;28755;51.478;5.702;2023-08-21T11:33:13;38.50;89.60
43151;DHT22;28755;51.478;5.702;2023-08-21T11:35:39;39.40;88.90
43151;DHT22;28755;51.478;5.702;2023-08-21T11:38:05;39.90;88.70
43151;DHT22;28755;51.478;5.702;2023-08-21T11:40:34;39.40;88.60
43151;DHT22;28755;51.478;5.702;2023-08-21T11:43:03;38.00;89.70
43151;DHT22;28755;51.478;5.702;2023-08-21T11:45:30;36.60;90.20
43151;DHT22;28755;51.478;5.702;2023-08-21T11:47:56;35.20;90.60
43151;DHT22;28755;51.478;5.702;2023-08-21T11:50:22;33.60;91.00
43151;DHT22;28755;51.478;5.702;2023-08-21T11:52:50;32.90;91.80
43151;DHT22;28755;51.478;5.702;2023-08-21T11:55:17;32.10;92.30
43151;DHT22;28755;51.478;5.702;2023-08-21T11:57:49;31.80;92.80
43151;DHT22;28755;51.478;5.702;2023-08-21T12:00:19;31.60;92.80
43151;DHT22;28755;51.478;5.702;2023-08-21T12:02:57;32.20;92.60
43151;DHT22;28755;51.478;5.702;2023-08-21T12:05:23;32.80;92.60
43151;DHT22;28755;51.478;5.702;2023-08-21T12:07:49;31.50;92.00
43151;DHT22;28755;51.478;5.702;2023-08-21T12:10:25;30.90;93.20
43151;DHT22;28755;51.478;5.702;2023-08-21T12:12:51;30.90;92.80
43151;DHT22;28755;51.478;5.702;2023-08-21T12:15:17;30.20;92.80
43151;DHT22;28755;51.478;5.702;2023-08-21T12:17:42;30.00;93.40
43151;DHT22;28755;51.478;5.702;2023-08-21T12:20:08;29.50;93.60
43151;DHT22;28755;51.478;5.702;2023-08-21T12:22:37;29.30;94.30
43151;DHT22;28755;51.478;5.702;2023-08-21T12:25:03;29.80;94.10
43151;DHT22;28755;51.478;5.702;2023-08-21T12:27:30;30.10;93.70
43151;DHT22;28755;51.478;5.702;2023-08-21T12:29:55;30.10;93.70
43151;DHT22;28755;51.478;5.702;2023-08-21T12:32:21;29.70;94.00
43151;DHT22;28755;51.478;5.702;2023-08-21T12:34:47;29.30;94.70
43151;DHT22;28755;51.478;5.702;2023-08-21T12:37:12;28.80;95.10
43151;DHT22;28755;51.478;5.702;2023-08-21T12:39:38;28.80;95.50
43151;DHT22;28755;51.478;5.702;2023-08-21T12:42:03;28.70;95.70
43151;DHT22;28755;51.478;5.702;2023-08-21T12:44:30;28.80;95.80
43151;DHT22;28755;51.478;5.702;2023-08-21T12:46:55;28.70;95.50
43151;DHT22;28755;51.478;5.702;2023-08-21T12:49:21;28.70;96.10
43151;DHT22;28755;51.478;5.702;2023-08-21T12:51:46;28.50;96.40
43151;DHT22;28755;51.478;5.702;2023-08-21T12:54:12;28.70;96.30
43151;DHT22;28755;51.478;5.702;2023-08-21T12:56:37;28.90;96.40
43151;DHT22;28755;51.478;5.702;2023-08-21T12:59:04;29.00;96.30
43151;DHT22;28755;51.478;5.702;2023-08-21T13:01:30;28.90;96.60
43151;DHT22;28755;51.478;5.702;2023-08-21T13:03:57;29.00;96.80
43151;DHT22;28755;51.478;5.702;2023-08-21T13:06:23;29.10;96.70
43151;DHT22;28755;51.478;5.702;2023-08-21T13:08:48;29.30;96.30
43151;DHT22;28755;51.478;5.702;2023-08-21T13:11:15;29.70;96.10
43151;DHT22;28755;51.478;5.702;2023-08-21T13:13:40;30.10;96.30
43151;DHT22;28755;51.478;5.702;2023-08-21T13:16:06;30.00;96.30
43151;DHT22;28755;51.478;5.702;2023-08-21T13:18:31;29.70;96.70
43151;DHT22;28755;51.478;5.702;2023-08-21T13:20:57;29.30;96.70
43151;DHT22;28755;51.478;5.702;2023-08-21T13:23:23;29.20;97.40
43151;DHT22;28755;51.478;5.702;2023-08-21T13:25:49;29.30;97.70
43151;DHT22;28755;51.478;5.702;2023-08-21T13:28:14;29.20;97.50
43151;DHT22;28755;51.478;5.702;2023-08-21T13:30:40;29.10;97.70
43151;DHT22;28755;51.478;5.702;2023-08-21T13:33:07;29.10;97.90
43151;DHT22;28755;51.478;5.702;2023-08-21T13:35:32;29.20;98.20
43151;DHT22;28755;51.478;5.702;2023-08-21T13:37:58;29.30;98.10
43151;DHT22;28755;51.478;5.702;2023-08-21T13:40:24;29.10;98.30
43151;DHT22;28755;51.478;5.702;2023-08-21T13:42:50;29.20;98.60
43151;DHT22;28755;51.478;5.702;2023-08-21T13:45:17;29.40;98.20
43151;DHT22;28755;51.478;5.702;2023-08-21T13:47:45;29.30;98.20
43151;DHT22;28755;51.478;5.702;2023-08-21T13:50:15;29.70;98.20
43151;DHT22;28755;51.478;5.702;2023-08-21T13:52:41;29.80;98.30
43151;DHT22;28755;51.478;5.702;2023-08-21T13:55:08;29.80;97.40
43151;DHT22;28755;51.478;5.702;2023-08-21T13:57:35;29.50;96.90
43151;DHT22;28755;51.478;5.702;2023-08-21T14:00:02;29.30;97.30
43151;DHT22;28755;51.478;5.702;2023-08-21T14:02:31;29.40;98.10
43151;DHT22;28755;51.478;5.702;2023-08-21T14:04:56;29.40;97.80
43151;DHT22;28755;51.478;5.702;2023-08-21T14:07:22;29.30;98.00
43151;DHT22;28755;51.478;5.702;2023-08-21T14:09:47;29.20;98.40
43151;DHT22;28755;51.478;5.702;2023-08-21T14:12:13;29.20;98.00
43151;DHT22;28755;51.478;5.702;2023-08-21T14:14:38;29.20;98.00
43151;DHT22;28755;51.478;5.702;2023-08-21T14:17:04;28.90;97.40
43151;DHT22;28755;51.478;5.702;2023-08-21T14:19:30;28.60;97.80
43151;DHT22;28755;51.478;5.702;2023-08-21T14:21:57;28.80;97.90
43151;DHT22;28755;51.478;5.702;2023-08-21T14:24:23;28.80;97.70
43151;DHT22;28755;51.478;5.702;2023-08-21T14:26:49;29.00;97.40
43151;DHT22;28755;51.478;5.702;2023-08-21T14:29:15;29.00;97.50
43151;DHT22;28755;51.478;5.702;2023-08-21T14:31:40;29.60;97.60
43151;DHT22;28755;51.478;5.702;2023-08-21T14:34:06;30.20;97.30
43151;DHT22;28755;51.478;5.702;2023-08-21T14:36:31;29.60;96.70
43151;DHT22;28755;51.478;5.702;2023-08-21T14:38:57;29.30;97.70
43151;DHT22;28755;51.478;5.702;2023-08-21T14:41:23;29.20;97.20
43151;DHT22;28755;51.478;5.702;2023-08-21T14:43:48;29.00;97.30
43151;DHT22;28755;51.478;5.702;2023-08-21T14:46:14;28.70;97.00
43151;DHT22;28755;51.478;5.702;2023-08-21T14:48:40;28.80;97.60
43151;DHT22;28755;51.478;5.702;2023-08-21T14:51:06;28.70;97.40
43151;DHT22;28755;51.478;5.702;2023-08-21T14:53:31;28.90;97.70
43151;DHT22;28755;51.478;5.702;2023-08-21T14:55:57;28.80;96.70
43151;DHT22;28755;51.478;5.702;2023-08-21T14:58:23;28.50;97.30
43151;DHT22;28755;51.478;5.702;2023-08-21T15:00:52;28.40;97.50
43151;DHT22;28755;51.478;5.702;2023-08-21T15:03:18;28.50;97.20
43151;DHT22;28755;51.478;5.702;2023-08-21T15:05:44;28.30;97.20
43151;DHT22;28755;51.478;5.702;2023-08-21T15:08:09;28.40;97.30
43151;DHT22;28755;51.478;5.702;2023-08-21T15:10:35;28.40;96.90
43151;DHT22;28755;51.478;5.702;2023-08-21T15:13:01;28.40;97.10
43151;DHT22;28755;51.478;5.702;2023-08-21T15:15:26;28.50;97.40
43151;DHT22;28755;51.478;5.702;2023-08-21T15:17:52;28.70;97.40
43151;DHT22;28755;51.478;5.702;2023-08-21T15:20:17;28.70;97.10
43151;DHT22;28755;51.478;5.702;2023-08-21T15:22:43;28.90;97.60
43151;DHT22;28755;51.478;5.702;2023-08-21T15:25:09;28.90;96.90
43151;DHT22;28755;51.478;5.702;2023-08-21T15:27:35;28.70;96.50
43151;DHT22;28755;51.478;5.702;2023-08-21T15:30:01;29.10;96.70
43151;DHT22;28755;51.478;5.702;2023-08-21T15:32:27;29.80;96.30
43151;DHT22;28755;51.478;5.702;2023-08-21T15:34:52;30.70;95.60